Time;durP1;ratioP1;P1;durP2;ratioP2;P2;SDS_P1;SDS_P2;PMS_P1;PMS_P2;Temp;Humidity;BMP_temperature;BMP_pressure;BME280_temperature;BME280_humidity;BME280_pressure;Samples;Min_cycle;Max_cycle;Signal;HPM_P1;HPM_P2
2022/10/10 00:01:31;;;;;;;1999.90;999.90;;;8.50;99.90;;;;;;5107782;28;20042;-65
2022/10/10 00:03:57;;;;;;;1999.90;999.90;;;8.40;99.90;;;;;;5111607;27;20100;-65
2022/10/10 00:06:23;;;;;;;1999.90;999.90;;;8.40;99.90;;;;;;5106530;28;20037;-65
2022/10/10 00:08:50;;;;;;;1999.90;999.90;;;8.40;99.90;;;;;;5088199;28;20112;-65
2022/10/10 00:11:17;;;;;;;1999.90;999.90;;;8.40;99.90;;;;;;5094684;28;20065;-65
2022/10/10 00:13:43;;;;;;;1999.90;999.90;;;8.40;99.90;;;;;;5106878;28;20075;-65
2022/10/10 00:16:09;;;;;;;1999.90;999.90;;;8.40;99.90;;;;;;5101121;28;20059;-65
2022/10/10 00:18:35;;;;;;;1999.90;999.90;;;8.40;99.90;;;;;;5111766;27;20075;-65
2022/10/10 00:21:01;;;;;;;1999.90;999.90;;;8.40;99.90;;;;;;5099429;28;20464;-65
2022/10/10 00:23:26;;;;;;;1999.90;999.90;;;8.50;99.90;;;;;;5106738;28;20477;-65
2022/10/10 00:25:52;;;;;;;1999.90;999.90;;;8.50;99.90;;;;;;5087959;28;20040;-65
2022/10/10 00:28:18;;;;;;;1999.90;999.90;;;8.50;99.90;;;;;;5084816;28;20115;-65
2022/10/10 00:30:44;;;;;;;1999.90;999.90;;;8.40;99.90;;;;;;5106525;28;20196;-65
2022/10/10 00:33:09;;;;;;;1999.90;999.90;;;8.40;99.90;;;;;;5111418;28;20125;-65
2022/10/10 00:35:35;;;;;;;1999.90;999.90;;;8.40;99.90;;;;;;5089745;28;20505;-65
2022/10/10 00:38:02;;;;;;;1999.90;999.90;;;8.40;99.90;;;;;;5084983;28;20078;-65
2022/10/10 00:40:27;;;;;;;1999.90;999.90;;;8.30;99.90;;;;;;5091498;28;20116;-65
2022/10/10 00:42:53;;;;;;;1999.90;999.90;;;8.40;99.90;;;;;;5088892;28;20488;-65
2022/10/10 00:45:34;;;;;;;1999.90;999.90;;;8.30;99.90;;;;;;5092081;27;20087;-65
2022/10/10 00:48:02;;;;;;;1999.90;999.90;;;8.20;99.90;;;;;;5106772;27;20078;-65
2022/10/10 00:50:30;;;;;;;1999.90;999.90;;;8.20;99.90;;;;;;5111480;27;20043;-65
2022/10/10 00:52:56;;;;;;;1999.90;999.90;;;8.10;99.90;;;;;;5110389;27;20040;-65
2022/10/10 00:55:22;;;;;;;1999.90;999.90;;;8.10;99.90;;;;;;5092482;28;20103;-65
2022/10/10 00:57:49;;;;;;;1999.90;999.90;;;8.10;99.90;;;;;;5074582;27;20051;-65
2022/10/10 01:00:14;;;;;;;1999.90;999.90;;;8.00;99.90;;;;;;5105818;28;20051;-65
2022/10/10 01:02:40;;;;;;;1999.90;999.90;;;8.00;99.90;;;;;;5081533;28;20050;-65
2022/10/10 01:05:06;;;;;;;1999.90;999.90;;;8.00;99.90;;;;;;5110924;28;20477;-65
2022/10/10 01:07:32;;;;;;;1999.90;999.90;;;8.00;99.90;;;;;;5075546;28;20051;-65
2022/10/10 01:10:06;;;;;;;1999.90;999.90;;;8.00;99.90;;;;;;5109819;27;20043;-65
2022/10/10 01:12:55;;;;;;;1999.90;999.90;;;7.90;99.90;;;;;;5089334;28;20110;-65
2022/10/10 01:15:41;;;;;;;1999.90;999.90;;;7.90;99.90;;;;;;5077842;27;20639;-65
2022/10/10 01:18:29;;;;;;;1999.90;999.90;;;7.90;99.90;;;;;;5117509;27;20046;-65
2022/10/10 01:21:15;;;;;;;1999.90;999.90;;;7.90;99.90;;;;;;5092063;28;20039;-65
2022/10/10 01:24:00;;;;;;;1999.90;999.90;;;7.90;99.90;;;;;;5065760;27;20585;-65
2022/10/10 01:26:44;;;;;;;1999.90;999.90;;;7.90;99.90;;;;;;5090642;27;20057;-65
2022/10/10 01:29:22;;;;;;;1999.90;999.90;;;7.90;99.90;;;;;;5109147;28;20485;-65
2022/10/10 01:31:53;;;;;;;1999.90;999.90;;;7.90;99.90;;;;;;5100189;27;20463;-65
2022/10/10 01:34:47;;;;;;;1999.90;999.90;;;7.90;99.90;;;;;;5111334;27;20110;-65
2022/10/10 01:37:18;;;;;;;1999.90;999.90;;;8.00;99.90;;;;;;5097924;27;20051;-65
2022/10/10 01:40:21;;;;;;;1999.90;999.90;;;8.00;99.90;;;;;;5091941;28;20054;-65
2022/10/10 01:42:53;;;;;;;1999.90;999.90;;;8.00;99.90;;;;;;5110151;28;20100;-65
2022/10/10 01:45:19;;;;;;;1999.90;999.90;;;7.90;99.90;;;;;;5106944;28;20743;-65
2022/10/10 01:47:46;;;;;;;1999.90;999.90;;;7.90;99.90;;;;;;5107602;28;20054;-65
2022/10/10 01:50:17;;;;;;;1999.90;999.90;;;7.90;99.90;;;;;;5099978;28;20031;-65
2022/10/10 01:53:10;;;;;;;1999.90;999.90;;;7.90;99.90;;;;;;5107681;28;20039;-65
2022/10/10 01:55:53;;;;;;;1999.90;999.90;;;7.90;99.90;;;;;;5109217;28;20059;-65
2022/10/10 01:58:25;;;;;;;1999.90;999.90;;;7.90;99.90;;;;;;5085478;28;20751;-64
2022/10/10 02:01:04;;;;;;;1999.90;999.90;;;7.90;99.90;;;;;;5072776;28;20134;-65
2022/10/10 02:03:36;;;;;;;1999.90;999.90;;;7.80;99.90;;;;;;5088302;28;20052;-65
2022/10/10 02:06:14;;;;;;;1999.90;999.90;;;7.80;99.90;;;;;;5105723;28;20035;-65
2022/10/10 02:08:49;;;;;;;1999.90;999.90;;;7.80;99.90;;;;;;5103079;28;20048;-65
2022/10/10 02:11:15;;;;;;;1999.90;999.90;;;7.70;99.90;;;;;;5111301;28;20043;-65
2022/10/10 02:13:51;;;;;;;1999.90;999.90;;;7.70;99.90;;;;;;5104787;28;20070;-65
2022/10/10 02:16:31;;;;;;;1999.90;999.90;;;7.70;99.90;;;;;;5116883;28;21924;-65
2022/10/10 02:18:58;;;;;;;1999.90;999.90;;;7.70;99.90;;;;;;5108019;28;20050;-65
2022/10/10 02:21:25;;;;;;;1999.90;999.90;;;7.70;99.90;;;;;;5108121;28;20096;-65
2022/10/10 02:23:54;;;;;;;1999.90;999.90;;;7.70;99.90;;;;;;5091129;28;20043;-65
2022/10/10 02:26:22;;;;;;;1999.90;999.90;;;7.60;99.90;;;;;;5111556;28;20054;-65
2022/10/10 02:28:47;;;;;;;1999.90;999.90;;;7.60;99.90;;;;;;5111984;28;20508;-65
2022/10/10 02:31:24;;;;;;;1999.90;999.90;;;7.60;99.90;;;;;;5090579;28;20051;-65
2022/10/10 02:33:55;;;;;;;1999.90;999.90;;;7.60;99.90;;;;;;5105429;28;20053;-65
2022/10/10 02:36:22;;;;;;;1999.90;999.90;;;7.60;99.90;;;;;;5097870;28;20040;-65
2022/10/10 02:38:49;;;;;;;1999.90;999.90;;;7.50;99.90;;;;;;5104890;28;20051;-65
2022/10/10 02:41:18;;;;;;;1999.90;999.90;;;7.60;99.90;;;;;;5095437;28;20052;-65
2022/10/10 02:43:44;;;;;;;1999.90;999.90;;;7.50;99.90;;;;;;5061927;28;1051121;-65
2022/10/10 02:46:12;;;;;;;1999.90;999.90;;;7.60;99.90;;;;;;5088767;28;20063;-65
2022/10/10 02:48:38;;;;;;;1999.90;999.90;;;7.50;99.90;;;;;;5071454;27;20094;-65
2022/10/10 02:51:05;;;;;;;1999.90;999.90;;;7.50;99.90;;;;;;5107330;27;20068;-65
2022/10/10 02:53:30;;;;;;;1999.90;999.90;;;7.40;99.90;;;;;;5087621;28;20050;-65
2022/10/10 02:55:56;;;;;;;1999.90;999.90;;;7.40;99.90;;;;;;5099099;28;20039;-65
2022/10/10 02:58:21;;;;;;;1999.90;999.90;;;7.40;99.90;;;;;;5109829;27;20047;-65
2022/10/10 03:00:47;;;;;;;1999.90;999.90;;;7.40;99.90;;;;;;5108384;27;20508;-65
2022/10/10 03:03:13;;;;;;;1999.90;999.90;;;7.30;99.90;;;;;;5082839;28;20096;-65
2022/10/10 03:05:38;;;;;;;1999.90;999.90;;;7.30;99.90;;;;;;5109408;27;20489;-65
2022/10/10 03:08:04;;;;;;;1999.90;999.90;;;7.30;99.90;;;;;;5095991;27;20078;-65
2022/10/10 03:10:29;;;;;;;1999.90;999.90;;;7.30;99.90;;;;;;5108383;27;20592;-65
2022/10/10 03:12:55;;;;;;;1999.90;999.90;;;7.30;99.90;;;;;;5112392;27;20039;-65
2022/10/10 03:15:20;;;;;;;1999.90;999.90;;;7.30;99.90;;;;;;5114717;27;20043;-65
2022/10/10 03:17:46;;;;;;;1999.90;999.90;;;7.40;99.90;;;;;;5087914;27;20054;-65
2022/10/10 03:20:12;;;;;;;1999.90;999.90;;;7.30;99.90;;;;;;5111685;27;20039;-65
2022/10/10 03:22:37;;;;;;;1999.90;999.90;;;7.30;99.90;;;;;;5095145;28;20035;-65
2022/10/10 03:25:03;;;;;;;1999.90;999.90;;;7.30;99.90;;;;;;5104955;28;20127;-65
2022/10/10 03:27:29;;;;;;;1999.90;999.90;;;7.40;99.90;;;;;;5095076;27;20524;-65
2022/10/10 03:29:55;;;;;;;1999.90;999.90;;;7.40;99.90;;;;;;5100109;28;20071;-65
2022/10/10 03:32:20;;;;;;;1999.90;999.90;;;7.30;99.90;;;;;;5103900;28;20032;-65
2022/10/10 03:34:46;;;;;;;1999.90;999.90;;;7.30;99.90;;;;;;5079240;28;20068;-65
2022/10/10 03:37:11;;;;;;;1999.90;999.90;;;7.30;99.90;;;;;;5073126;28;20043;-65
2022/10/10 03:39:37;;;;;;;1999.90;999.90;;;7.30;99.90;;;;;;5076272;27;20114;-65
2022/10/10 03:42:02;;;;;;;1999.90;999.90;;;7.30;99.90;;;;;;5107739;27;20499;-65
2022/10/10 03:44:28;;;;;;;1999.90;999.90;;;7.30;99.90;;;;;;5097600;28;20542;-65
2022/10/10 03:46:53;;;;;;;1999.90;999.90;;;7.30;99.90;;;;;;5107117;27;20538;-65
2022/10/10 03:49:19;;;;;;;1999.90;999.90;;;7.30;99.90;;;;;;5106891;27;20452;-65
2022/10/10 03:51:45;;;;;;;1999.90;999.90;;;7.30;99.90;;;;;;5068182;28;20512;-65
2022/10/10 03:54:10;;;;;;;1999.90;999.90;;;7.30;99.90;;;;;;5089008;28;20058;-65
2022/10/10 03:56:36;;;;;;;1999.90;999.90;;;7.30;99.90;;;;;;5108348;27;20064;-65
2022/10/10 03:59:02;;;;;;;1999.90;999.90;;;7.20;99.90;;;;;;5106312;28;20042;-65
2022/10/10 04:01:29;;;;;;;1999.90;999.90;;;7.20;99.90;;;;;;5088747;28;20049;-65
2022/10/10 04:03:55;;;;;;;1999.90;999.90;;;7.20;99.90;;;;;;5110563;27;20051;-65
2022/10/10 04:06:21;;;;;;;1999.90;999.90;;;7.20;99.90;;;;;;5103872;28;20035;-65
2022/10/10 04:08:47;;;;;;;1999.90;999.90;;;7.20;99.90;;;;;;5088100;28;20039;-65
2022/10/10 04:11:12;;;;;;;1999.90;999.90;;;7.20;99.90;;;;;;5091518;28;20043;-65
2022/10/10 04:13:38;;;;;;;1999.90;999.90;;;7.20;99.90;;;;;;5073543;28;20047;-65
2022/10/10 04:16:04;;;;;;;1999.90;999.90;;;7.20;99.90;;;;;;5118105;27;20496;-65
2022/10/10 04:18:30;;;;;;;1999.90;999.90;;;7.20;99.90;;;;;;5076058;28;20047;-65
2022/10/10 04:20:56;;;;;;;1999.90;999.90;;;7.30;99.90;;;;;;5084105;28;20039;-65
2022/10/10 04:23:21;;;;;;;1999.90;999.90;;;7.30;99.90;;;;;;5082638;28;20039;-65
2022/10/10 04:25:50;;;;;;;1999.90;999.90;;;7.30;99.90;;;;;;5107240;28;20481;-65
2022/10/10 04:28:15;;;;;;;1999.90;999.90;;;7.30;99.90;;;;;;5086694;28;20443;-65
2022/10/10 04:30:42;;;;;;;1999.90;999.90;;;7.20;99.90;;;;;;5080494;28;20032;-65
2022/10/10 04:33:07;;;;;;;1999.90;999.90;;;7.20;99.90;;;;;;5106779;28;20031;-65
2022/10/10 04:35:33;;;;;;;1999.90;999.90;;;7.20;99.90;;;;;;5107548;28;20048;-65
2022/10/10 04:37:59;;;;;;;1999.90;999.90;;;7.20;99.90;;;;;;5054700;28;20493;-65
2022/10/10 04:40:25;;;;;;;1999.90;999.90;;;7.20;99.90;;;;;;5106911;28;20039;-65
2022/10/10 04:42:50;;;;;;;1999.90;999.90;;;7.20;99.90;;;;;;5094303;28;20415;-65
2022/10/10 04:45:16;;;;;;;1999.90;999.90;;;7.20;99.90;;;;;;5119268;28;20059;-65
2022/10/10 04:47:42;;;;;;;1999.90;999.90;;;7.20;99.90;;;;;;5091095;28;20051;-65
2022/10/10 04:50:08;;;;;;;1999.90;999.90;;;7.20;99.90;;;;;;5104837;28;20032;-65
2022/10/10 04:52:33;;;;;;;1999.90;999.90;;;7.20;99.90;;;;;;5085547;28;20535;-65
2022/10/10 04:54:59;;;;;;;1999.90;999.90;;;7.20;99.90;;;;;;5106667;28;20054;-65
2022/10/10 04:57:24;;;;;;;1999.90;999.90;;;7.20;99.90;;;;;;5072855;28;20485;-65
2022/10/10 04:59:50;;;;;;;1999.90;999.90;;;7.10;99.90;;;;;;5112689;28;20043;-65
2022/10/10 05:02:16;;;;;;;1999.90;999.90;;;7.10;99.90;;;;;;5103031;28;20080;-65
2022/10/10 05:04:41;;;;;;;1999.90;999.90;;;7.10;99.90;;;;;;5088665;28;20128;-65
2022/10/10 05:07:07;;;;;;;1999.90;999.90;;;7.10;99.90;;;;;;5097802;28;20047;-65
2022/10/10 05:09:32;;;;;;;1999.90;999.90;;;7.00;99.90;;;;;;5117163;28;20390;-65
2022/10/10 05:11:59;;;;;;;1999.90;999.90;;;7.00;99.90;;;;;;5083918;28;20052;-65
2022/10/10 05:14:24;;;;;;;1999.90;999.90;;;6.90;99.90;;;;;;5105823;28;20036;-65
2022/10/10 05:16:50;;;;;;;1999.90;999.90;;;6.90;99.90;;;;;;5107959;28;20084;-65
2022/10/10 05:19:15;;;;;;;1999.90;999.90;;;6.90;99.90;;;;;;5098981;28;20036;-65
2022/10/10 05:21:41;;;;;;;1999.90;999.90;;;6.90;99.90;;;;;;5101634;28;20488;-65
2022/10/10 05:24:07;;;;;;;1999.90;999.90;;;6.90;99.90;;;;;;5080321;28;20623;-65
2022/10/10 05:26:32;;;;;;;1999.90;999.90;;;6.90;99.90;;;;;;5075179;27;20047;-65
2022/10/10 05:28:59;;;;;;;1999.90;999.90;;;6.90;99.90;;;;;;5094185;27;20519;-65
2022/10/10 05:31:25;;;;;;;1999.90;999.90;;;6.90;99.90;;;;;;5102478;27;20123;-65
2022/10/10 05:33:51;;;;;;;1999.90;999.90;;;6.90;99.90;;;;;;5108732;28;20126;-65
2022/10/10 05:36:16;;;;;;;1999.90;999.90;;;6.90;99.90;;;;;;5091621;28;20036;-65
2022/10/10 05:38:42;;;;;;;1999.90;999.90;;;6.90;99.90;;;;;;5085611;27;20407;-65
2022/10/10 05:41:08;;;;;;;1999.90;999.90;;;7.00;99.90;;;;;;5103964;28;20039;-65
2022/10/10 05:43:34;;;;;;;1999.90;999.90;;;7.00;99.90;;;;;;5092895;28;20408;-65
2022/10/10 05:46:00;;;;;;;1999.90;999.90;;;7.00;99.90;;;;;;5068868;28;20052;-65
2022/10/10 05:48:26;;;;;;;1999.90;999.90;;;7.00;99.90;;;;;;5111508;27;20035;-65
2022/10/10 05:50:55;;;;;;;1999.90;999.90;;;7.00;99.90;;;;;;5109569;27;20068;-65
2022/10/10 05:53:22;;;;;;;1999.90;999.90;;;7.00;99.90;;;;;;5073236;28;20043;-65
2022/10/10 05:55:48;;;;;;;1999.90;999.90;;;7.10;99.90;;;;;;5078228;27;20555;-65
2022/10/10 05:58:14;;;;;;;1999.90;999.90;;;7.10;99.90;;;;;;5117044;27;20032;-65
2022/10/10 06:00:41;;;;;;;1999.90;999.90;;;7.10;99.90;;;;;;5091528;28;20039;-65
2022/10/10 06:03:07;;;;;;;1999.90;999.90;;;7.10;99.90;;;;;;5098862;28;20468;-65
2022/10/10 06:05:33;;;;;;;1999.90;999.90;;;7.10;99.90;;;;;;5088688;28;20073;-65
2022/10/10 06:07:59;;;;;;;1999.90;999.90;;;7.10;99.90;;;;;;5077630;27;20483;-65
2022/10/10 06:10:24;;;;;;;1999.90;999.90;;;7.10;99.90;;;;;;5110192;28;20392;-65
2022/10/10 06:12:50;;;;;;;1999.90;999.90;;;7.10;99.90;;;;;;5109004;28;20035;-65
2022/10/10 06:15:16;;;;;;;1999.90;999.90;;;7.10;99.90;;;;;;5109341;27;20077;-65
2022/10/10 06:17:42;;;;;;;1999.90;999.90;;;7.20;99.90;;;;;;5094514;28;20438;-65
2022/10/10 06:20:08;;;;;;;1999.90;999.90;;;7.20;99.90;;;;;;5093974;28;20035;-65
2022/10/10 06:22:34;;;;;;;1999.90;999.90;;;7.30;99.90;;;;;;5084083;28;20130;-65
2022/10/10 06:24:59;;;;;;;1999.90;999.90;;;7.40;99.90;;;;;;5092195;28;20126;-65
2022/10/10 06:27:25;;;;;;;1999.90;999.90;;;7.40;99.90;;;;;;5084470;28;20043;-65
2022/10/10 06:29:51;;;;;;;1999.90;999.90;;;7.40;99.90;;;;;;5103139;27;20040;-65
2022/10/10 06:32:16;;;;;;;1999.90;999.90;;;7.50;99.90;;;;;;5090458;28;20100;-65
2022/10/10 06:34:42;;;;;;;1999.90;999.90;;;7.50;99.90;;;;;;5072075;28;20040;-65
2022/10/10 06:37:07;;;;;;;1999.90;999.90;;;7.60;99.90;;;;;;5113354;27;20118;-65
2022/10/10 06:39:33;;;;;;;1999.90;999.90;;;7.60;99.90;;;;;;5100269;27;20039;-65
2022/10/10 06:41:59;;;;;;;1999.90;999.90;;;7.70;99.90;;;;;;5093110;27;20036;-65
2022/10/10 06:44:24;;;;;;;1999.90;999.90;;;7.80;99.90;;;;;;5092599;28;20543;-65
2022/10/10 06:46:50;;;;;;;1999.90;999.90;;;7.80;99.90;;;;;;5087059;28;20055;-65
2022/10/10 06:49:15;;;;;;;1999.90;999.90;;;7.90;99.90;;;;;;5107296;28;20042;-65
2022/10/10 06:51:41;;;;;;;1999.90;999.90;;;8.00;99.90;;;;;;5108082;27;20035;-65
2022/10/10 06:54:06;;;;;;;1999.90;999.90;;;8.10;99.90;;;;;;5080211;28;20522;-65
2022/10/10 06:56:32;;;;;;;1999.90;999.90;;;8.20;99.90;;;;;;5090096;27;20050;-65
2022/10/10 06:58:57;;;;;;;1999.90;999.90;;;8.30;99.90;;;;;;5123767;27;20044;-65
2022/10/10 07:01:24;;;;;;;1999.90;999.90;;;8.40;99.90;;;;;;5089084;28;20486;-65
2022/10/10 07:03:50;;;;;;;1999.90;999.90;;;8.50;99.90;;;;;;5107524;27;20069;-65
2022/10/10 07:06:17;;;;;;;1999.90;999.90;;;8.60;99.90;;;;;;5109945;27;20028;-65
2022/10/10 07:08:42;;;;;;;1999.90;999.90;;;8.70;99.90;;;;;;5089548;28;20043;-65
2022/10/10 07:11:08;;;;;;;1999.90;999.90;;;8.80;99.90;;;;;;5090890;28;20078;-65
2022/10/10 07:13:35;;;;;;;1999.90;999.90;;;8.90;99.90;;;;;;5086640;28;20039;-65
2022/10/10 07:16:01;;;;;;;1999.90;999.90;;;9.10;99.90;;;;;;5109133;27;20118;-65
2022/10/10 07:18:26;;;;;;;1999.90;999.90;;;9.10;99.90;;;;;;5107136;27;20111;-65
2022/10/10 07:20:57;;;;;;;1999.90;999.90;;;9.10;99.90;;;;;;5090983;27;20044;-65
2022/10/10 07:23:23;;;;;;;1999.90;999.90;;;9.20;99.90;;;;;;5107396;27;20036;-65
2022/10/10 07:25:49;;;;;;;1999.90;999.90;;;9.20;99.90;;;;;;5083901;28;20044;-65
2022/10/10 07:28:14;;;;;;;1999.90;999.90;;;9.20;99.90;;;;;;5089005;28;20059;-65
2022/10/10 07:30:42;;;;;;;1999.90;999.90;;;9.30;99.90;;;;;;5107168;27;20508;-65
2022/10/10 07:33:08;;;;;;;1999.90;999.90;;;9.30;99.90;;;;;;5086000;28;20051;-65
2022/10/10 07:35:34;;;;;;;1999.90;999.90;;;9.20;99.90;;;;;;5089921;27;20043;-65
2022/10/10 07:37:59;;;;;;;1999.90;999.90;;;9.20;99.90;;;;;;5088863;28;20039;-65
2022/10/10 07:40:25;;;;;;;1999.90;999.90;;;9.20;99.90;;;;;;5106645;28;20031;-65
2022/10/10 07:42:50;;;;;;;1999.90;999.90;;;9.20;99.90;;;;;;5107057;28;20042;-65
2022/10/10 07:45:16;;;;;;;1999.90;999.90;;;9.20;99.90;;;;;;5108436;28;20085;-65
2022/10/10 07:47:42;;;;;;;1999.90;999.90;;;9.20;99.90;;;;;;5091431;28;20456;-65
2022/10/10 07:50:10;;;;;;;1999.90;999.90;;;9.30;99.90;;;;;;5107978;28;20089;-65
2022/10/10 07:52:36;;;;;;;1999.90;999.90;;;9.40;99.90;;;;;;5090139;28;20114;-65
2022/10/10 07:55:04;;;;;;;1999.90;999.90;;;9.50;99.90;;;;;;5107559;27;20036;-65
2022/10/10 07:57:33;;;;;;;1999.90;999.90;;;9.50;99.90;;;;;;5087661;28;20591;-65
2022/10/10 08:00:04;;;;;;;1999.90;999.90;;;9.70;99.90;;;;;;5107237;28;20501;-65
2022/10/10 08:02:29;;;;;;;1999.90;999.90;;;9.80;99.90;;;;;;5092227;28;20394;-65
2022/10/10 08:04:55;;;;;;;1999.90;999.90;;;10.00;99.90;;;;;;5109066;28;20046;-65
2022/10/10 08:07:20;;;;;;;1999.90;999.90;;;10.10;99.90;;;;;;5082969;28;20584;-65
2022/10/10 08:09:46;;;;;;;1999.90;999.90;;;10.30;99.90;;;;;;5070157;28;20062;-65
2022/10/10 08:12:11;;;;;;;1999.90;999.90;;;10.40;99.90;;;;;;5098958;27;20392;-65
2022/10/10 08:14:37;;;;;;;1999.90;999.90;;;10.70;99.90;;;;;;5108642;27;20052;-65
2022/10/10 08:17:03;;;;;;;1999.90;999.90;;;11.10;99.90;;;;;;5102565;28;20039;-65
2022/10/10 08:19:28;;;;;;;1999.90;999.90;;;11.60;99.90;;;;;;5090816;27;20043;-65
2022/10/10 08:21:54;;;;;;;1999.90;999.90;;;12.30;99.90;;;;;;5089259;28;20091;-65
2022/10/10 08:24:19;;;;;;;1999.90;999.90;;;12.70;99.90;;;;;;5090431;27;20043;-66
2022/10/10 08:26:45;;;;;;;1999.90;999.90;;;12.70;99.90;;;;;;5097788;28;20044;-65
2022/10/10 08:29:10;;;;;;;1999.90;999.90;;;12.90;99.90;;;;;;5106667;28;20150;-65
2022/10/10 08:31:36;;;;;;;1999.90;999.90;;;13.00;99.90;;;;;;5108168;28;20046;-65
2022/10/10 08:34:01;;;;;;;1999.90;999.90;;;13.30;99.90;;;;;;5110924;28;20050;-65
2022/10/10 08:36:27;;;;;;;1999.90;999.90;;;13.50;99.90;;;;;;5092661;28;20125;-65
2022/10/10 08:38:58;;;;;;;1999.90;999.90;;;13.60;99.90;;;;;;5104172;28;20047;-66
2022/10/10 08:41:30;;;;;;;1999.90;999.90;;;13.90;99.90;;;;;;5100852;28;20055;-66
2022/10/10 08:44:01;;;;;;;;;;;14.30;99.90;;;;;;5090364;28;20420;-65
2022/10/10 08:46:32;;;;;;;1999.90;999.90;;;14.30;99.90;;;;;;5107785;28;19919;-66
2022/10/10 08:49:07;;;;;;;1999.90;999.90;;;14.40;99.90;;;;;;5087951;28;20044;-65
2022/10/10 08:51:34;;;;;;;1999.90;999.90;;;14.60;99.90;;;;;;5097938;28;20397;-66
2022/10/10 08:54:03;;;;;;;1999.90;999.90;;;15.00;99.90;;;;;;5100834;28;20534;-65
2022/10/10 08:56:31;;;;;;;1999.90;999.90;;;15.10;99.90;;;;;;5102273;28;20054;-66
2022/10/10 08:59:23;;;;;;;1999.90;999.90;;;15.20;99.90;;;;;;5084088;28;20444;-65
2022/10/10 09:01:54;;;;;;;1999.90;999.90;;;15.40;99.90;;;;;;5072626;28;20039;-66
2022/10/10 09:04:20;;;;;;;1999.90;999.90;;;15.70;99.90;;;;;;5111378;27;20047;-66
2022/10/10 09:07:13;;;;;;;1999.90;999.90;;;16.20;99.90;;;;;;5103479;28;20027;-65
2022/10/10 09:10:05;;;;;;;1999.90;999.90;;;16.30;99.90;;;;;;5105833;28;20122;-65
2022/10/10 09:12:44;;;;;;;1999.90;999.90;;;15.90;99.90;;;;;;5103171;28;20048;-66
2022/10/10 09:15:34;;;;;;;1999.90;999.90;;;15.70;99.90;;;;;;5089772;28;20043;-66
2022/10/10 09:18:37;;;;;;;1999.90;999.90;;;15.70;99.90;;;;;;5092425;28;20048;-65
2022/10/10 09:21:16;;;;;;;1999.90;999.90;;;15.60;99.90;;;;;;5111671;27;20039;-66
2022/10/10 09:23:53;;;;;;;1999.90;999.90;;;15.40;99.90;;;;;;5100319;27;20055;-66
2022/10/10 09:26:25;;;;;;;1999.90;999.90;;;15.10;99.90;;;;;;5104017;28;20432;-65
2022/10/10 09:29:18;;;;;;;1999.90;999.90;;;15.00;99.90;;;;;;5089466;28;20625;-66
2022/10/10 09:31:46;;;;;;;;;;;15.00;99.90;;;;;;5091413;28;20061;-66
2022/10/10 09:34:26;;;;;;;1999.90;999.90;;;15.00;99.90;;;;;;5091099;28;20353;-65
2022/10/10 09:36:54;;;;;;;1999.90;999.90;;;15.00;99.90;;;;;;5092241;28;20104;-65
2022/10/10 09:40:03;;;;;;;1999.90;999.90;;;15.00;99.90;;;;;;5103690;28;20492;-66
2022/10/10 09:42:37;;;;;;;1999.90;999.90;;;15.20;99.90;;;;;;5044881;28;20048;-66
2022/10/10 09:45:32;;;;;;;1999.90;999.90;;;15.20;99.90;;;;;;5105472;28;20151;-65
2022/10/10 09:47:58;;;;;;;1999.90;999.90;;;15.30;99.90;;;;;;5112471;27;20044;-65
2022/10/10 09:50:24;;;;;;;1999.90;999.90;;;15.60;99.90;;;;;;5099286;27;20556;-65
2022/10/10 09:52:51;;;;;;;1999.90;999.90;;;15.80;99.90;;;;;;5108550;28;20074;-66
2022/10/10 09:55:27;;;;;;;1999.90;999.90;;;15.80;99.90;;;;;;5086011;28;20059;-65
2022/10/10 09:57:56;;;;;;;1999.90;999.90;;;15.90;99.90;;;;;;5093330;28;20475;-65
2022/10/10 10:00:32;;;;;;;1999.90;999.90;;;15.90;99.90;;;;;;5093687;27;20055;-65
2022/10/10 10:03:14;;;;;;;1999.90;999.90;;;16.00;99.90;;;;;;5068164;28;20043;-65
2022/10/10 10:05:44;;;;;;;1999.90;999.90;;;16.00;99.90;;;;;;5089502;28;20513;-66
2022/10/10 10:08:25;;;;;;;1999.90;999.90;;;16.10;99.90;;;;;;5088604;28;20036;-65
2022/10/10 10:10:51;;;;;;;1999.90;999.90;;;16.20;99.90;;;;;;5090701;28;20036;-65
2022/10/10 10:13:25;;;;;;;1999.90;999.90;;;16.10;99.90;;;;;;5104485;27;20032;-66
2022/10/10 10:16:01;;;;;;;1999.90;999.90;;;16.10;99.90;;;;;;5106726;27;20392;-65
2022/10/10 10:18:28;;;;;;;1999.90;999.90;;;16.20;99.90;;;;;;5100463;27;20035;-66
2022/10/10 10:21:13;;;;;;;1999.90;999.90;;;16.00;99.90;;;;;;5108631;27;20078;-65
2022/10/10 10:23:52;;;;;;;1999.90;999.90;;;15.80;99.90;;;;;;5089247;28;20089;-65
2022/10/10 10:26:29;;;;;;;1999.90;999.90;;;15.70;99.90;;;;;;5105298;28;20046;-65
2022/10/10 10:28:56;;;;;;;1999.90;999.90;;;15.80;99.90;;;;;;5094003;28;20075;-65
2022/10/10 10:31:44;;;;;;;1999.90;999.90;;;16.20;99.90;;;;;;5090037;28;20047;-65
2022/10/10 10:34:24;;;;;;;1999.90;999.90;;;16.60;99.90;;;;;;5098412;27;20063;-65
2022/10/10 10:37:04;;;;;;;1999.90;999.90;;;16.90;99.90;;;;;;5107466;27;20469;-66
2022/10/10 10:40:10;;;;;;;1999.90;999.90;;;17.20;99.90;;;;;;5102019;27;20040;-65
2022/10/10 10:43:13;;;;;;;1999.90;999.90;;;17.40;99.90;;;;;;5108171;27;20405;-65
2022/10/10 10:46:05;;;;;;;1999.90;999.90;;;17.10;99.90;;;;;;5101299;27;20155;-65
2022/10/10 10:48:44;;;;;;;1999.90;999.90;;;16.90;99.90;;;;;;5100648;28;20035;-65
2022/10/10 10:51:46;;;;;;;1999.90;999.90;;;16.90;99.90;;;;;;5104606;28;20043;-65
2022/10/10 10:54:41;;;;;;;1999.90;999.90;;;16.80;99.90;;;;;;5088338;28;20040;-65
2022/10/10 10:57:37;;;;;;;1999.90;999.90;;;16.70;99.90;;;;;;5095170;27;20040;-65
2022/10/10 11:00:18;;;;;;;1999.90;999.90;;;16.70;99.90;;;;;;5081656;28;20039;-65
2022/10/10 11:03:24;;;;;;;1999.90;999.90;;;16.50;99.90;;;;;;5087139;28;20035;-65
2022/10/10 11:06:15;;;;;;;1999.90;999.90;;;16.40;99.90;;;;;;5082758;28;20048;-65
2022/10/10 11:08:52;;;;;;;1999.90;999.90;;;16.10;99.90;;;;;;5104285;28;20031;-65
2022/10/10 11:11:46;;;;;;;1999.90;999.90;;;16.00;99.90;;;;;;5103897;28;20902;-65
2022/10/10 11:14:30;;;;;;;1999.90;999.90;;;15.80;99.90;;;;;;5108139;27;20047;-66
2022/10/10 11:17:06;;;;;;;1999.90;999.90;;;15.60;99.90;;;;;;5102856;27;20043;-65
2022/10/10 11:19:38;;;;;;;1999.90;999.90;;;15.40;99.90;;;;;;5081766;28;20055;-65
2022/10/10 11:22:12;;;;;;;1999.90;999.90;;;15.40;99.90;;;;;;5100107;27;20123;-65
2022/10/10 11:24:54;;;;;;;1999.90;999.90;;;15.20;99.90;;;;;;5102848;28;20044;-65
2022/10/10 11:27:29;;;;;;;1999.90;999.90;;;15.10;99.90;;;;;;5087079;28;20480;-65
2022/10/10 11:30:19;;;;;;;1999.90;999.90;;;15.00;99.90;;;;;;5116337;27;20039;-65
2022/10/10 11:32:47;;;;;;;1999.90;999.90;;;14.80;99.90;;;;;;5067704;28;20392;-65
2022/10/10 11:35:32;;;;;;;1999.90;999.90;;;14.80;99.90;;;;;;5071803;28;20346;-65
2022/10/10 11:38:14;;;;;;;1999.90;999.90;;;14.70;99.90;;;;;;5105229;28;20039;-65
2022/10/10 11:41:03;;;;;;;1999.90;999.90;;;14.60;99.90;;;;;;5106308;28;20051;-65
2022/10/10 11:43:45;;;;;;;1999.90;999.90;;;14.60;99.90;;;;;;5088297;27;20089;-65
2022/10/10 11:46:15;;;;;;;1999.90;999.90;;;14.60;99.90;;;;;;5099314;27;20084;-65
2022/10/10 11:48:44;;;;;;;1999.90;999.90;;;14.60;99.90;;;;;;5078411;28;20045;-65
2022/10/10 11:51:24;;;;;;;1999.90;999.90;;;14.60;99.90;;;;;;5106077;28;20036;-65
2022/10/10 11:53:55;;;;;;;1999.90;999.90;;;14.70;99.90;;;;;;5105824;28;20035;-66
2022/10/10 11:56:42;;;;;;;1999.90;999.90;;;14.70;99.90;;;;;;5085770;28;20039;-66
2022/10/10 11:59:20;;;;;;;1999.90;999.90;;;14.70;99.90;;;;;;5089236;28;20061;-65
2022/10/10 12:01:51;;;;;;;1999.90;999.90;;;14.70;99.90;;;;;;5089761;28;20069;-65
2022/10/10 12:04:17;;;;;;;1999.90;999.90;;;14.60;99.90;;;;;;5105389;28;20035;-65
2022/10/10 12:06:55;;;;;;;1999.90;999.90;;;14.70;99.90;;;;;;5101380;27;20035;-65
2022/10/10 12:09:41;;;;;;;1999.90;999.90;;;14.70;99.90;;;;;;5089795;28;20063;-66
2022/10/10 12:12:17;;;;;;;1999.90;999.90;;;14.70;99.90;;;;;;5105135;28;20051;-66
2022/10/10 12:14:52;;;;;;;1999.90;999.90;;;14.60;99.90;;;;;;5107990;27;20177;-66
2022/10/10 12:17:21;;;;;;;1999.90;999.90;;;14.70;99.90;;;;;;5109603;27;20031;-65
2022/10/10 12:19:49;;;;;;;1999.90;999.90;;;14.70;99.90;;;;;;5087408;28;20044;-66
2022/10/10 12:22:27;;;;;;;1999.90;999.90;;;14.60;99.90;;;;;;5112766;28;20047;-65
2022/10/10 12:25:34;;;;;;;1999.90;999.90;;;14.60;99.90;;;;;;5093461;28;20040;-66